In Rescue
 
Open Full Screen Window  High Contrast Mode
November 20, 2019 1:59 AM EST
Present Weather: Mist
Weather Information
Wind Direction
  ---
Wind Speed
  00 kt (0 mph)
Wind Gust
  00 kt (0 mph)
Altimeter
29.97 in
Visibility
1 SM
Temperature
03° C
37° F
Dewpoint
03° C
37° F
Humidity
100%
1hr Rain Fall
00.00 in.
24hr Rain Fall
00.00 in.
Sky Condition
Overcast @ 100 ft
LIFR

METAR KDRM 200659Z AUTO 00000KT 1SM BR OVC001 03/03 A2997 RMK AO2 T00330032

FAA Disclaimer: The data displayed is for advisory purposes only and is not to be used for flight planning or operations.